createdAt,value
2023-02-27T00:02:25.462Z,22.52
2023-02-27T00:04:52.532Z,22.44
2023-02-27T00:07:19.405Z,22.51
2023-02-27T00:09:47.655Z,22.37
2023-02-27T00:12:14.546Z,22.55
2023-02-27T00:14:41.420Z,22.36
2023-02-27T00:17:08.291Z,22.46
2023-02-27T00:19:35.131Z,22.48
2023-02-27T00:22:02.070Z,22.58
2023-02-27T00:24:29.165Z,22.45
2023-02-27T00:26:57.448Z,22.54
2023-02-27T00:29:24.600Z,22.47
2023-02-27T00:31:52.033Z,22.49
2023-02-27T00:34:19.083Z,22.54
2023-02-27T00:36:45.993Z,22.56
2023-02-27T00:39:12.944Z,22.51
2023-02-27T00:41:40.133Z,22.58
2023-02-27T00:44:08.510Z,22.49
2023-02-27T00:46:35.400Z,22.50
2023-02-27T00:49:02.257Z,22.61
2023-02-27T00:51:29.209Z,22.61
2023-02-27T00:53:56.189Z,22.57
2023-02-27T00:56:23.214Z,22.65
2023-02-27T00:58:50.585Z,22.38
2023-02-27T01:01:18.807Z,22.54
2023-02-27T01:03:45.697Z,22.69
2023-02-27T01:06:12.664Z,22.72
2023-02-27T01:08:39.556Z,22.72
2023-02-27T01:11:06.415Z,22.79
2023-02-27T01:13:33.331Z,22.67
2023-02-27T01:16:00.283Z,22.68
2023-02-27T01:18:30.060Z,22.64
2023-02-27T01:20:56.998Z,22.68
2023-02-27T01:23:23.939Z,22.71
2023-02-27T01:25:50.885Z,22.78
2023-02-27T01:28:17.848Z,22.76
2023-02-27T01:30:44.916Z,22.60
2023-02-27T01:33:14.611Z,22.73
2023-02-27T01:35:42.839Z,22.81
2023-02-27T01:38:09.737Z,22.75
2023-02-27T01:40:37.682Z,22.81
2023-02-27T01:43:05.402Z,22.87
2023-02-27T01:45:34.427Z,22.75
2023-02-27T01:48:08.891Z,23.08
2023-02-27T01:50:37.966Z,22.75
2023-02-27T01:53:07.194Z,22.88
2023-02-27T01:55:38.043Z,22.77
2023-02-27T01:58:06.415Z,22.85
2023-02-27T02:00:33.365Z,22.87
2023-02-27T02:03:09.834Z,22.84
2023-02-27T02:05:37.145Z,22.96
2023-02-27T02:08:05.464Z,22.96
2023-02-27T02:10:34.379Z,22.89
2023-02-27T02:13:03.727Z,22.93
2023-02-27T02:15:36.695Z,22.88
2023-02-27T02:18:14.745Z,22.85
2023-02-27T02:21:28.246Z,22.88
2023-02-27T02:24:52.709Z,23.03
2023-02-27T02:27:34.011Z,23.08
2023-02-27T02:30:37.731Z,22.90
2023-02-27T02:33:40.016Z,23.03
2023-02-27T02:36:55.161Z,23.09
2023-02-27T02:39:59.260Z,22.97
2023-02-27T02:42:32.864Z,22.84
2023-02-27T02:47:43.928Z,22.85
2023-02-27T02:50:14.758Z,23.00
2023-02-27T02:55:24.494Z,23.17
2023-02-27T02:58:00.161Z,23.06
2023-02-27T03:00:31.835Z,23.00
2023-02-27T03:03:06.597Z,23.09
2023-02-27T03:05:37.900Z,22.83
2023-02-27T03:08:09.764Z,22.93
2023-02-27T03:10:45.406Z,22.96
2023-02-27T03:13:18.063Z,22.87
2023-02-27T03:15:51.017Z,23.08
2023-02-27T03:18:24.543Z,23.05
2023-02-27T03:20:57.070Z,23.09
2023-02-27T03:23:28.925Z,22.92
2023-02-27T03:25:58.633Z,23.22
2023-02-27T03:28:30.292Z,23.14
2023-02-27T03:31:07.359Z,22.98
2023-02-27T03:33:40.118Z,23.11
2023-02-27T03:36:12.071Z,22.88
2023-02-27T03:38:48.327Z,23.00
2023-02-27T03:41:28.032Z,23.19
2023-02-27T03:44:11.252Z,23.07
2023-02-27T03:46:38.487Z,23.10
2023-02-27T03:49:06.224Z,23.02
2023-02-27T03:51:34.926Z,23.14
2023-02-27T03:54:07.485Z,23.11
2023-02-27T03:56:40.422Z,23.31
2023-02-27T03:59:08.058Z,22.95
2023-02-27T04:01:37.878Z,23.05
2023-02-27T04:04:09.938Z,23.31
2023-02-27T04:07:18.362Z,23.15
2023-02-27T04:10:05.191Z,23.16
2023-02-27T04:12:57.556Z,23.22
2023-02-27T04:15:33.148Z,23.24
2023-02-27T04:18:10.685Z,23.30
2023-02-27T04:20:43.660Z,23.29
2023-02-27T04:23:17.419Z,23.26
2023-02-27T04:25:54.551Z,23.34
2023-02-27T04:28:27.711Z,23.33
2023-02-27T04:31:13.515Z,23.22
2023-02-27T04:33:45.060Z,23.06
2023-02-27T04:36:14.161Z,23.20
2023-02-27T04:38:46.666Z,23.27
2023-02-27T04:41:17.034Z,23.35
2023-02-27T04:43:46.674Z,23.23
2023-02-27T04:46:17.691Z,23.09
2023-02-27T04:48:53.268Z,23.49
2023-02-27T04:51:24.987Z,23.20
2023-02-27T04:53:56.548Z,23.19
2023-02-27T04:56:24.910Z,23.36
2023-02-27T04:58:57.427Z,23.32
2023-02-27T05:01:31.564Z,23.14
2023-02-27T05:04:00.490Z,23.40
2023-02-27T05:06:32.280Z,23.51
2023-02-27T05:09:06.882Z,23.18
2023-02-27T05:11:41.242Z,23.09
2023-02-27T05:14:15.589Z,23.33
2023-02-27T05:16:47.800Z,23.27
2023-02-27T05:19:14.866Z,23.29
2023-02-27T05:21:47.842Z,23.25
2023-02-27T05:24:24.472Z,23.75
2023-02-27T05:27:05.053Z,23.27
2023-02-27T05:29:41.306Z,23.14
2023-02-27T05:32:21.533Z,23.35
2023-02-27T05:34:52.941Z,23.27
2023-02-27T05:37:25.642Z,23.17
2023-02-27T05:39:53.103Z,23.21
2023-02-27T05:42:28.325Z,23.17
2023-02-27T05:45:03.584Z,23.37
2023-02-27T05:47:33.961Z,23.30
2023-02-27T05:50:06.991Z,23.43
2023-02-27T05:52:36.471Z,23.08
2023-02-27T05:55:07.106Z,23.29
2023-02-27T05:57:40.540Z,23.51
2023-02-27T06:00:15.546Z,23.15
2023-02-27T06:02:45.077Z,23.25
2023-02-27T06:05:15.515Z,23.36
2023-02-27T06:07:42.474Z,23.26
2023-02-27T06:10:14.432Z,23.11
2023-02-27T06:12:41.794Z,23.10
2023-02-27T06:15:11.188Z,23.16
2023-02-27T06:17:39.060Z,23.18
2023-02-27T06:20:07.440Z,23.10
2023-02-27T06:22:34.586Z,23.09
2023-02-27T06:25:01.853Z,23.06
2023-02-27T06:27:28.857Z,22.84
2023-02-27T06:29:55.749Z,22.93
2023-02-27T06:32:25.767Z,22.75
2023-02-27T06:34:52.871Z,22.94
2023-02-27T06:37:19.795Z,22.75
2023-02-27T06:39:48.047Z,22.56
2023-02-27T06:42:15.513Z,22.51
2023-02-27T06:44:42.439Z,22.65
2023-02-27T06:47:09.740Z,22.57
2023-02-27T06:49:37.969Z,22.60
2023-02-27T06:52:06.309Z,22.22
2023-02-27T06:54:33.963Z,22.51
2023-02-27T06:57:01.122Z,22.33
2023-02-27T06:59:28.057Z,21.84
2023-02-27T07:01:55.231Z,22.15
2023-02-27T07:04:22.173Z,21.66
2023-02-27T07:07:34.352Z,22.14
2023-02-27T07:09:37.406Z,21.87
2023-02-27T07:12:05.531Z,22.03
2023-02-27T07:14:32.530Z,21.75
2023-02-27T07:17:03.306Z,21.79
2023-02-27T07:19:31.264Z,21.82
2023-02-27T07:21:59.737Z,22.07
2023-02-27T07:24:26.676Z,21.99
2023-02-27T07:26:54.007Z,22.14
2023-02-27T07:29:21.075Z,21.87
2023-02-27T07:31:47.975Z,22.19
2023-02-27T07:34:15.707Z,22.18
2023-02-27T07:36:43.584Z,22.05
2023-02-27T07:39:13.346Z,22.01
2023-02-27T07:41:40.440Z,21.93
2023-02-27T07:44:08.754Z,21.78
2023-02-27T07:46:36.008Z,21.75
2023-02-27T07:49:03.277Z,21.97
2023-02-27T07:51:31.381Z,21.76
2023-02-27T07:53:58.604Z,21.73
2023-02-27T07:56:27.659Z,21.84
2023-02-27T07:58:54.900Z,21.64
2023-02-27T08:01:21.863Z,21.59
2023-02-27T08:03:48.715Z,21.50
2023-02-27T08:06:15.857Z,21.75
2023-02-27T08:08:42.835Z,21.61
2023-02-27T08:11:09.771Z,21.95
2023-02-27T08:16:25.197Z,21.80
2023-02-27T08:18:52.225Z,21.92
2023-02-27T08:21:19.089Z,21.87
2023-02-27T08:23:45.997Z,21.77
2023-02-27T08:26:13.593Z,21.83
2023-02-27T08:28:42.019Z,21.91
2023-02-27T08:31:09.002Z,21.71
2023-02-27T08:33:36.275Z,22.09
2023-02-27T08:36:03.274Z,21.79
2023-02-27T08:38:30.406Z,22.05
2023-02-27T08:40:57.383Z,21.84
2023-02-27T08:43:24.470Z,21.83
2023-02-27T08:45:53.035Z,21.82
2023-02-27T08:48:20.071Z,21.68
2023-02-27T08:50:47.278Z,21.77
2023-02-27T08:53:14.188Z,21.62
2023-02-27T08:55:42.096Z,21.66
2023-02-27T08:58:09.338Z,21.72
2023-02-27T09:00:36.360Z,21.54
2023-02-27T09:03:04.796Z,21.44
2023-02-27T09:05:35.296Z,21.53
2023-02-27T09:08:02.564Z,21.68
2023-02-27T09:10:29.541Z,21.52
2023-02-27T09:12:56.484Z,21.53
2023-02-27T09:15:23.418Z,21.61
2023-02-27T09:17:50.328Z,21.74
2023-02-27T09:20:18.893Z,21.79
2023-02-27T09:22:45.911Z,21.97
2023-02-27T09:25:12.799Z,21.66
2023-02-27T09:27:39.708Z,21.70
2023-02-27T09:30:08.501Z,21.89
2023-02-27T09:32:35.562Z,21.56
2023-02-27T09:35:02.691Z,21.98
2023-02-27T09:37:31.038Z,21.80
2023-02-27T09:39:58.025Z,21.50
2023-02-27T09:42:30.514Z,21.70
2023-02-27T09:45:02.937Z,21.65
2023-02-27T09:47:37.272Z,21.98
2023-02-27T09:50:09.298Z,21.93
2023-02-27T09:52:37.852Z,21.61
2023-02-27T09:55:06.493Z,21.42
2023-02-27T09:57:47.877Z,21.80
2023-02-27T10:00:35.667Z,21.32
2023-02-27T10:03:17.189Z,21.33
2023-02-27T10:05:52.633Z,21.66
2023-02-27T10:08:27.425Z,21.49
2023-02-27T10:11:00.879Z,21.72
2023-02-27T10:13:42.844Z,21.77
2023-02-27T10:16:12.667Z,21.46
2023-02-27T10:18:48.430Z,21.31
2023-02-27T10:21:20.966Z,21.46
2023-02-27T10:23:55.362Z,21.47
2023-02-27T10:26:27.607Z,21.47
2023-02-27T10:28:54.530Z,21.62
2023-02-27T10:31:26.007Z,21.60
2023-02-27T10:33:54.095Z,21.85
2023-02-27T10:36:32.954Z,21.57
2023-02-27T10:39:07.081Z,21.65
2023-02-27T10:41:35.657Z,21.41
2023-02-27T10:44:02.528Z,21.58
2023-02-27T10:46:32.242Z,21.51
2023-02-27T10:49:00.342Z,21.70
2023-02-27T10:51:29.317Z,21.62
2023-02-27T10:54:16.157Z,21.40
2023-02-27T10:56:45.816Z,21.25
2023-02-27T10:59:19.624Z,21.75
2023-02-27T11:01:49.193Z,21.52
2023-02-27T11:04:25.289Z,21.87
2023-02-27T11:06:53.876Z,21.62
2023-02-27T11:09:25.112Z,21.85
2023-02-27T11:11:52.434Z,21.76
2023-02-27T11:14:27.945Z,21.66
2023-02-27T11:16:56.450Z,21.35
2023-02-27T11:19:31.831Z,22.00
2023-02-27T11:22:04.538Z,21.59
2023-02-27T11:24:33.385Z,21.75
2023-02-27T11:27:06.508Z,21.45
2023-02-27T11:29:34.522Z,21.81
2023-02-27T11:32:05.085Z,21.63
2023-02-27T11:34:36.418Z,21.59
2023-02-27T11:37:05.704Z,21.61
2023-02-27T11:39:38.093Z,21.65
2023-02-27T11:42:17.536Z,21.71
2023-02-27T11:44:54.054Z,21.33
2023-02-27T11:47:27.162Z,21.38
2023-02-27T11:50:45.107Z,21.28
2023-02-27T11:53:35.911Z,21.22
2023-02-27T11:56:08.862Z,21.55
2023-02-27T11:58:43.012Z,21.46
2023-02-27T12:01:18.505Z,21.49
2023-02-27T12:03:52.233Z,21.14
2023-02-27T12:06:23.820Z,21.32
2023-02-27T12:08:55.255Z,21.61
2023-02-27T12:11:29.766Z,21.56
2023-02-27T12:14:04.479Z,21.59
2023-02-27T12:16:37.511Z,21.24
2023-02-27T12:19:12.982Z,21.59
2023-02-27T12:21:43.724Z,21.04
2023-02-27T12:24:19.772Z,21.00
2023-02-27T12:26:52.595Z,21.18
2023-02-27T12:29:28.561Z,21.27
2023-02-27T12:32:02.435Z,21.41
2023-02-27T12:34:38.675Z,21.41
2023-02-27T12:37:11.398Z,21.05
2023-02-27T12:39:40.411Z,21.52
2023-02-27T12:42:36.243Z,21.12
2023-02-27T12:45:18.575Z,21.19
2023-02-27T12:47:54.711Z,20.94
2023-02-27T12:50:24.299Z,21.41
2023-02-27T12:53:04.990Z,20.77
2023-02-27T12:55:35.546Z,20.87
2023-02-27T12:58:22.386Z,21.03
2023-02-27T13:00:54.112Z,20.89
2023-02-27T13:03:26.440Z,20.93
2023-02-27T13:05:59.424Z,21.07
2023-02-27T13:08:48.354Z,20.99
2023-02-27T13:11:25.368Z,21.11
2023-02-27T13:13:59.508Z,21.35
2023-02-27T13:16:31.395Z,21.06
2023-02-27T13:19:04.972Z,21.69
2023-02-27T13:21:36.968Z,21.35
2023-02-27T13:24:18.897Z,21.54
2023-02-27T13:26:50.464Z,20.87
2023-02-27T13:29:21.332Z,21.04
2023-02-27T13:31:55.487Z,20.89
2023-02-27T13:34:30.519Z,21.35
2023-02-27T13:37:01.422Z,20.88
2023-02-27T13:40:01.255Z,20.93
2023-02-27T13:43:04.531Z,21.09
2023-02-27T13:45:51.342Z,21.13
2023-02-27T13:48:41.769Z,20.86
2023-02-27T13:51:11.266Z,20.90
2023-02-27T13:53:38.632Z,20.99
2023-02-27T13:56:26.649Z,20.97
2023-02-27T13:58:53.563Z,20.63
2023-02-27T14:01:27.492Z,20.65
2023-02-27T14:03:58.104Z,20.72
2023-02-27T14:06:26.437Z,20.60
2023-02-27T14:09:08.862Z,20.45
2023-02-27T14:11:49.875Z,20.81
2023-02-27T14:14:36.804Z,20.92
2023-02-27T14:17:05.299Z,20.71
2023-02-27T14:19:57.113Z,20.73
2023-02-27T14:22:39.799Z,21.02
2023-02-27T14:25:24.565Z,20.43
2023-02-27T14:27:56.966Z,20.32
2023-02-27T14:30:32.312Z,20.70
2023-02-27T14:33:11.425Z,20.39
2023-02-27T14:35:38.680Z,20.81
2023-02-27T14:38:11.087Z,20.37
2023-02-27T14:40:48.684Z,20.41
2023-02-27T14:43:26.890Z,20.17
2023-02-27T14:45:54.642Z,20.66
2023-02-27T14:48:27.760Z,19.97
2023-02-27T14:50:57.933Z,20.53
2023-02-27T14:53:27.067Z,20.03
2023-02-27T14:55:55.539Z,20.36
2023-02-27T14:58:22.591Z,20.40
2023-02-27T15:00:59.785Z,20.47
2023-02-27T15:03:32.729Z,20.13
2023-02-27T15:06:02.039Z,20.16
2023-02-27T15:08:31.479Z,20.65
2023-02-27T15:10:59.319Z,20.32
2023-02-27T15:13:29.781Z,20.30
2023-02-27T15:16:20.671Z,20.42
2023-02-27T15:18:50.904Z,20.24
2023-02-27T15:21:20.318Z,19.98
2023-02-27T15:23:54.890Z,20.26
2023-02-27T15:26:22.121Z,19.94
2023-02-27T15:28:50.520Z,19.99
2023-02-27T15:31:20.612Z,20.00
2023-02-27T15:33:49.876Z,20.29
2023-02-27T15:36:21.614Z,20.31
2023-02-27T15:39:04.389Z,19.85
2023-02-27T15:41:31.736Z,19.82
2023-02-27T15:43:59.029Z,19.75
2023-02-27T15:46:26.679Z,19.79
2023-02-27T15:48:55.770Z,19.91
2023-02-27T15:51:25.341Z,20.07
2023-02-27T15:53:55.298Z,19.99
2023-02-27T15:56:27.110Z,19.57
2023-02-27T15:59:00.215Z,19.97
2023-02-27T16:01:32.532Z,19.83
2023-02-27T16:04:04.273Z,19.81
2023-02-27T16:06:33.080Z,19.96
2023-02-27T16:09:03.037Z,19.93
2023-02-27T16:11:31.792Z,19.38
2023-02-27T16:13:58.949Z,19.67
2023-02-27T16:16:32.659Z,19.85
2023-02-27T16:19:14.016Z,19.45
2023-02-27T16:22:04.751Z,19.46
2023-02-27T16:24:32.064Z,19.48
2023-02-27T16:27:00.415Z,19.36
2023-02-27T16:29:31.910Z,19.52
2023-02-27T16:31:58.998Z,19.24
2023-02-27T16:34:44.212Z,19.19
2023-02-27T16:37:19.567Z,19.24
2023-02-27T16:39:46.940Z,19.23
2023-02-27T16:42:13.741Z,19.50
2023-02-27T16:44:40.626Z,19.52
2023-02-27T16:47:07.590Z,19.21
2023-02-27T16:49:35.902Z,19.08
2023-02-27T16:52:03.937Z,19.20
2023-02-27T16:54:30.877Z,19.55
2023-02-27T16:56:57.791Z,19.01
2023-02-27T16:59:30.845Z,19.62
2023-02-27T17:01:59.685Z,19.02
2023-02-27T17:04:28.156Z,19.72
2023-02-27T17:06:57.977Z,19.33
2023-02-27T17:09:27.387Z,19.20
2023-02-27T17:11:55.569Z,19.19
2023-02-27T17:14:22.522Z,19.22
2023-02-27T17:16:49.524Z,19.28
2023-02-27T17:19:16.471Z,19.24
2023-02-27T17:21:43.459Z,19.51
2023-02-27T17:24:11.704Z,19.27
2023-02-27T17:26:38.595Z,19.12
2023-02-27T17:29:05.500Z,19.51
2023-02-27T17:31:32.489Z,19.63
2023-02-27T17:33:59.530Z,19.52
2023-02-27T17:36:26.878Z,19.05
2023-02-27T17:38:55.317Z,19.46
2023-02-27T17:41:24.097Z,18.86
2023-02-27T17:43:51.707Z,18.94
2023-02-27T17:46:18.625Z,19.45
2023-02-27T17:48:45.608Z,19.24
2023-02-27T17:51:14.407Z,18.97
2023-02-27T17:53:41.470Z,18.74
2023-02-27T17:56:09.036Z,19.17
2023-02-27T17:58:37.382Z,18.99
2023-02-27T18:01:05.137Z,19.17
2023-02-27T18:03:32.264Z,18.75
2023-02-27T18:05:59.213Z,18.79
2023-02-27T18:08:26.060Z,18.82
2023-02-27T18:10:53.111Z,18.75
2023-02-27T18:13:21.890Z,18.80
2023-02-27T18:15:50.382Z,19.27
2023-02-27T18:18:17.611Z,19.21
2023-02-27T18:20:45.330Z,19.10
2023-02-27T18:23:12.973Z,18.89
2023-02-27T18:25:40.108Z,18.81
2023-02-27T18:28:07.913Z,19.27
2023-02-27T18:30:38.150Z,19.11
2023-02-27T18:33:06.399Z,18.80
2023-02-27T18:35:33.742Z,18.65
2023-02-27T18:38:02.325Z,18.49
2023-02-27T18:40:29.379Z,18.63
2023-02-27T18:42:56.367Z,18.56
2023-02-27T18:45:24.351Z,18.96
2023-02-27T18:47:51.409Z,18.96
2023-02-27T18:50:19.908Z,18.98
2023-02-27T18:52:47.291Z,18.56
2023-02-27T18:55:14.938Z,19.03
2023-02-27T18:57:41.798Z,18.59
2023-02-27T19:00:10.041Z,18.67
2023-02-27T19:02:41.702Z,18.75
2023-02-27T19:05:11.079Z,18.67
2023-02-27T19:07:39.306Z,18.41
2023-02-27T19:10:08.286Z,18.89
2023-02-27T19:12:35.284Z,18.53
2023-02-27T19:15:02.141Z,18.63
2023-02-27T19:17:28.998Z,18.87
2023-02-27T19:19:55.877Z,18.94
2023-02-27T19:22:22.857Z,18.96
2023-02-27T19:24:51.138Z,19.41
2023-02-27T19:27:18.200Z,19.21
2023-02-27T19:29:45.261Z,19.46
2023-02-27T19:32:12.212Z,19.58
2023-02-27T19:34:39.121Z,19.30
2023-02-27T19:37:05.998Z,19.68
2023-02-27T19:39:32.916Z,19.41
2023-02-27T19:42:01.166Z,19.45
2023-02-27T19:44:28.591Z,19.92
2023-02-27T19:46:55.488Z,19.98
2023-02-27T19:49:22.534Z,19.58
2023-02-27T19:51:49.480Z,19.77
2023-02-27T19:54:16.699Z,19.98
2023-02-27T19:56:44.333Z,19.46
2023-02-27T19:59:13.072Z,20.05
2023-02-27T20:01:40.768Z,20.18
2023-02-27T20:04:09.124Z,19.80
2023-02-27T20:06:42.449Z,20.29
2023-02-27T20:09:10.993Z,20.24
2023-02-27T20:11:37.880Z,20.40
2023-02-27T20:14:05.017Z,20.21
2023-02-27T20:16:36.017Z,19.99
2023-02-27T20:19:03.270Z,20.16
2023-02-27T20:21:30.367Z,20.45
2023-02-27T20:23:58.394Z,20.49
2023-02-27T20:26:28.355Z,20.31
2023-02-27T20:28:58.359Z,20.03
2023-02-27T20:31:28.301Z,19.85
2023-02-27T20:33:57.632Z,20.38
2023-02-27T20:36:25.863Z,20.34
2023-02-27T20:38:52.964Z,19.77
2023-02-27T20:41:22.585Z,19.66
2023-02-27T20:43:50.142Z,20.16
2023-02-27T20:46:20.053Z,19.82
2023-02-27T20:48:47.506Z,19.79
2023-02-27T20:51:17.964Z,19.67
2023-02-27T20:53:47.163Z,19.47
2023-02-27T20:56:14.514Z,19.57
2023-02-27T20:58:41.892Z,19.79
2023-02-27T21:01:09.614Z,19.92
2023-02-27T21:03:39.211Z,19.64
2023-02-27T21:06:08.255Z,19.75
2023-02-27T21:08:37.738Z,20.01
2023-02-27T21:11:09.170Z,19.90
2023-02-27T21:13:37.067Z,20.14
2023-02-27T21:16:04.476Z,19.84
2023-02-27T21:18:31.897Z,20.12
2023-02-27T21:21:02.964Z,20.32
2023-02-27T21:23:29.913Z,20.26
2023-02-27T21:25:58.347Z,20.24
2023-02-27T21:28:25.403Z,20.19
2023-02-27T21:30:54.570Z,20.16
2023-02-27T21:33:22.365Z,20.07
2023-02-27T21:35:49.584Z,20.16
2023-02-27T21:38:16.708Z,20.17
2023-02-27T21:40:43.601Z,20.39
2023-02-27T21:43:11.989Z,20.27
2023-02-27T21:45:43.997Z,20.39
2023-02-27T21:48:11.800Z,20.54
2023-02-27T21:50:38.653Z,20.44
2023-02-27T21:53:05.682Z,20.76
2023-02-27T21:55:34.246Z,20.72
2023-02-27T21:58:04.057Z,20.80
2023-02-27T22:00:33.458Z,20.83
2023-02-27T22:03:00.417Z,20.77
2023-02-27T22:05:27.364Z,21.09
2023-02-27T22:07:54.219Z,21.06
2023-02-27T22:10:21.115Z,20.52
2023-02-27T22:12:47.957Z,20.86
2023-02-27T22:15:15.008Z,20.83
2023-02-27T22:17:43.396Z,20.67
2023-02-27T22:20:11.780Z,20.70
2023-02-27T22:22:38.780Z,20.59
2023-02-27T22:25:06.123Z,20.93
2023-02-27T22:27:33.108Z,20.72
2023-02-27T22:29:59.926Z,20.91
2023-02-27T22:32:27.037Z,20.73
2023-02-27T22:34:58.293Z,20.75
2023-02-27T22:37:25.209Z,20.62
2023-02-27T22:39:52.065Z,20.83
2023-02-27T22:42:18.916Z,20.49
2023-02-27T22:44:45.807Z,20.63
2023-02-27T22:47:12.714Z,20.93
2023-02-27T22:49:39.852Z,20.69
2023-02-27T22:52:08.183Z,20.64
2023-02-27T22:54:35.057Z,20.75
2023-02-27T22:57:01.913Z,20.90
2023-02-27T22:59:28.876Z,20.71
2023-02-27T23:01:55.849Z,20.77
2023-02-27T23:04:22.839Z,20.92
2023-02-27T23:06:52.566Z,20.87
2023-02-27T23:09:24.220Z,20.87
2023-02-27T23:11:51.418Z,20.84
2023-02-27T23:14:20.818Z,21.08
2023-02-27T23:16:48.047Z,20.91
2023-02-27T23:19:16.759Z,21.00
2023-02-27T23:21:43.854Z,21.12
2023-02-27T23:24:12.516Z,21.18
2023-02-27T23:26:43.252Z,20.83
2023-02-27T23:29:10.610Z,21.09
2023-02-27T23:31:38.398Z,21.13
2023-02-27T23:34:06.121Z,21.06
2023-02-27T23:36:33.910Z,21.15
2023-02-27T23:39:03.012Z,21.03
2023-02-27T23:41:30.609Z,21.04
2023-02-27T23:43:59.228Z,21.16
2023-02-27T23:46:30.285Z,21.20
2023-02-27T23:48:58.283Z,21.08
2023-02-27T23:51:25.506Z,20.98
2023-02-27T23:53:52.811Z,21.24
2023-02-27T23:56:21.616Z,21.14
2023-02-27T23:58:53.666Z,20.93
